sensor_id;sensor_type;location;lat;lon;timestamp;P1;durP1;ratioP1;P2;durP2;ratioP2
43150;SDS011;28755;51.478;5.702;2022-11-15T00:00:47;29.60;;;19.25;;
43150;SDS011;28755;51.478;5.702;2022-11-15T00:03:14;29.90;;;18.58;;
43150;SDS011;28755;51.478;5.702;2022-11-15T00:05:40;33.97;;;19.20;;
43150;SDS011;28755;51.478;5.702;2022-11-15T00:08:06;29.20;;;19.67;;
43150;SDS011;28755;51.478;5.702;2022-11-15T00:10:31;26.10;;;18.00;;
43150;SDS011;28755;51.478;5.702;2022-11-15T00:12:57;29.98;;;19.15;;
43150;SDS011;28755;51.478;5.702;2022-11-15T00:15:22;31.20;;;19.67;;
43150;SDS011;28755;51.478;5.702;2022-11-15T00:17:48;27.38;;;18.92;;
43150;SDS011;28755;51.478;5.702;2022-11-15T00:20:14;27.90;;;18.60;;
43150;SDS011;28755;51.478;5.702;2022-11-15T00:22:40;30.90;;;18.60;;
43150;SDS011;28755;51.478;5.702;2022-11-15T00:25:06;28.45;;;19.23;;
43150;SDS011;28755;51.478;5.702;2022-11-15T00:27:31;28.17;;;18.90;;
43150;SDS011;28755;51.478;5.702;2022-11-15T00:29:57;29.85;;;19.00;;
43150;SDS011;28755;51.478;5.702;2022-11-15T00:32:23;25.23;;;18.50;;
43150;SDS011;28755;51.478;5.702;2022-11-15T00:34:48;28.42;;;18.05;;
43150;SDS011;28755;51.478;5.702;2022-11-15T00:37:14;27.15;;;18.63;;
43150;SDS011;28755;51.478;5.702;2022-11-15T00:39:39;28.05;;;17.80;;
43150;SDS011;28755;51.478;5.702;2022-11-15T00:42:05;25.92;;;17.70;;
43150;SDS011;28755;51.478;5.702;2022-11-15T00:44:30;27.85;;;17.98;;
43150;SDS011;28755;51.478;5.702;2022-11-15T00:46:56;30.65;;;19.17;;
43150;SDS011;28755;51.478;5.702;2022-11-15T00:49:22;29.67;;;18.85;;
43150;SDS011;28755;51.478;5.702;2022-11-15T00:51:47;31.48;;;18.70;;
43150;SDS011;28755;51.478;5.702;2022-11-15T00:54:13;31.15;;;18.73;;
43150;SDS011;28755;51.478;5.702;2022-11-15T00:56:38;28.83;;;18.98;;
43150;SDS011;28755;51.478;5.702;2022-11-15T00:59:04;27.90;;;18.17;;
43150;SDS011;28755;51.478;5.702;2022-11-15T01:01:29;31.42;;;18.08;;
43150;SDS011;28755;51.478;5.702;2022-11-15T01:03:55;24.75;;;17.58;;
43150;SDS011;28755;51.478;5.702;2022-11-15T01:06:20;29.70;;;18.33;;
43150;SDS011;28755;51.478;5.702;2022-11-15T01:08:46;30.42;;;19.05;;
43150;SDS011;28755;51.478;5.702;2022-11-15T01:11:12;27.45;;;18.75;;
43150;SDS011;28755;51.478;5.702;2022-11-15T01:13:38;26.73;;;18.65;;
43150;SDS011;28755;51.478;5.702;2022-11-15T01:16:08;25.63;;;18.42;;
43150;SDS011;28755;51.478;5.702;2022-11-15T01:18:38;26.13;;;19.50;;
43150;SDS011;28755;51.478;5.702;2022-11-15T01:21:05;28.38;;;19.52;;
43150;SDS011;28755;51.478;5.702;2022-11-15T01:23:32;28.38;;;19.38;;
43150;SDS011;28755;51.478;5.702;2022-11-15T01:26:01;25.40;;;18.17;;
43150;SDS011;28755;51.478;5.702;2022-11-15T01:28:31;27.48;;;19.60;;
43150;SDS011;28755;51.478;5.702;2022-11-15T01:31:01;29.98;;;18.98;;
43150;SDS011;28755;51.478;5.702;2022-11-15T01:33:28;31.88;;;19.35;;
43150;SDS011;28755;51.478;5.702;2022-11-15T01:35:54;29.15;;;19.23;;
43150;SDS011;28755;51.478;5.702;2022-11-15T01:38:20;28.08;;;19.30;;
43150;SDS011;28755;51.478;5.702;2022-11-15T01:40:46;29.40;;;19.13;;
43150;SDS011;28755;51.478;5.702;2022-11-15T01:43:21;31.80;;;19.73;;
43150;SDS011;28755;51.478;5.702;2022-11-15T01:45:55;31.75;;;19.88;;
43150;SDS011;28755;51.478;5.702;2022-11-15T01:48:34;28.67;;;19.38;;
43150;SDS011;28755;51.478;5.702;2022-11-15T01:51:00;30.10;;;19.80;;
43150;SDS011;28755;51.478;5.702;2022-11-15T01:53:31;27.10;;;19.65;;
43150;SDS011;28755;51.478;5.702;2022-11-15T01:55:58;28.80;;;20.02;;
43150;SDS011;28755;51.478;5.702;2022-11-15T01:58:29;28.45;;;20.27;;
43150;SDS011;28755;51.478;5.702;2022-11-15T02:00:55;28.02;;;20.25;;
43150;SDS011;28755;51.478;5.702;2022-11-15T02:03:21;28.70;;;19.63;;
43150;SDS011;28755;51.478;5.702;2022-11-15T02:05:51;28.88;;;20.02;;
43150;SDS011;28755;51.478;5.702;2022-11-15T02:08:18;34.45;;;21.30;;
43150;SDS011;28755;51.478;5.702;2022-11-15T02:10:46;30.27;;;21.05;;
43150;SDS011;28755;51.478;5.702;2022-11-15T02:13:13;29.40;;;20.35;;
43150;SDS011;28755;51.478;5.702;2022-11-15T02:15:41;34.53;;;21.38;;
43150;SDS011;28755;51.478;5.702;2022-11-15T02:18:23;31.70;;;20.55;;
43150;SDS011;28755;51.478;5.702;2022-11-15T02:20:58;34.40;;;20.67;;
43150;SDS011;28755;51.478;5.702;2022-11-15T02:28:50;28.55;;;20.83;;
43150;SDS011;28755;51.478;5.702;2022-11-15T02:39:31;36.53;;;20.60;;
43150;SDS011;28755;51.478;5.702;2022-11-15T02:42:16;33.45;;;21.13;;
43150;SDS011;28755;51.478;5.702;2022-11-15T02:45:08;35.42;;;21.30;;
43150;SDS011;28755;51.478;5.702;2022-11-15T02:47:41;31.50;;;19.55;;
43150;SDS011;28755;51.478;5.702;2022-11-15T02:50:12;30.38;;;20.52;;
43150;SDS011;28755;51.478;5.702;2022-11-15T02:52:40;31.20;;;21.27;;
43150;SDS011;28755;51.478;5.702;2022-11-15T02:58:25;30.70;;;20.25;;
43150;SDS011;28755;51.478;5.702;2022-11-15T03:01:04;27.40;;;20.40;;
43150;SDS011;28755;51.478;5.702;2022-11-15T03:07:00;32.40;;;19.60;;
43150;SDS011;28755;51.478;5.702;2022-11-15T03:09:52;31.25;;;20.15;;
43150;SDS011;28755;51.478;5.702;2022-11-15T03:12:35;31.17;;;20.17;;
43150;SDS011;28755;51.478;5.702;2022-11-15T03:15:08;36.05;;;20.48;;
43150;SDS011;28755;51.478;5.702;2022-11-15T03:17:42;29.70;;;20.33;;
43150;SDS011;28755;51.478;5.702;2022-11-15T03:20:20;33.38;;;20.40;;
43150;SDS011;28755;51.478;5.702;2022-11-15T03:22:46;32.17;;;20.30;;
43150;SDS011;28755;51.478;5.702;2022-11-15T03:25:16;32.38;;;20.92;;
43150;SDS011;28755;51.478;5.702;2022-11-15T03:27:46;35.47;;;21.30;;
43150;SDS011;28755;51.478;5.702;2022-11-15T03:30:16;37.90;;;22.15;;
43150;SDS011;28755;51.478;5.702;2022-11-15T03:32:55;32.05;;;21.45;;
43150;SDS011;28755;51.478;5.702;2022-11-15T03:35:27;34.75;;;21.17;;
43150;SDS011;28755;51.478;5.702;2022-11-15T03:40:40;31.60;;;20.85;;
43150;SDS011;28755;51.478;5.702;2022-11-15T03:43:10;34.65;;;21.52;;
43150;SDS011;28755;51.478;5.702;2022-11-15T03:45:50;29.95;;;20.77;;
43150;SDS011;28755;51.478;5.702;2022-11-15T03:48:37;34.55;;;21.23;;
43150;SDS011;28755;51.478;5.702;2022-11-15T03:51:23;31.05;;;20.48;;
43150;SDS011;28755;51.478;5.702;2022-11-15T03:53:48;33.13;;;19.77;;
43150;SDS011;28755;51.478;5.702;2022-11-15T03:56:14;34.17;;;19.38;;
43150;SDS011;28755;51.478;5.702;2022-11-15T03:58:39;32.30;;;20.38;;
43150;SDS011;28755;51.478;5.702;2022-11-15T04:01:05;30.05;;;20.45;;
43150;SDS011;28755;51.478;5.702;2022-11-15T04:03:30;30.45;;;20.63;;
43150;SDS011;28755;51.478;5.702;2022-11-15T04:05:56;31.35;;;19.88;;
43150;SDS011;28755;51.478;5.702;2022-11-15T04:08:22;34.97;;;20.08;;
43150;SDS011;28755;51.478;5.702;2022-11-15T04:10:50;33.13;;;20.77;;
43150;SDS011;28755;51.478;5.702;2022-11-15T04:13:16;35.70;;;20.63;;
43150;SDS011;28755;51.478;5.702;2022-11-15T04:15:42;30.00;;;20.45;;
43150;SDS011;28755;51.478;5.702;2022-11-15T04:18:07;30.25;;;20.50;;
43150;SDS011;28755;51.478;5.702;2022-11-15T04:20:33;31.33;;;20.60;;
43150;SDS011;28755;51.478;5.702;2022-11-15T04:23:18;31.90;;;19.50;;
43150;SDS011;28755;51.478;5.702;2022-11-15T04:26:08;38.05;;;20.98;;
43150;SDS011;28755;51.478;5.702;2022-11-15T04:28:36;30.80;;;19.48;;
43150;SDS011;28755;51.478;5.702;2022-11-15T04:31:21;30.20;;;20.42;;
43150;SDS011;28755;51.478;5.702;2022-11-15T04:33:46;34.10;;;20.77;;
43150;SDS011;28755;51.478;5.702;2022-11-15T04:36:12;31.00;;;20.63;;
43150;SDS011;28755;51.478;5.702;2022-11-15T04:38:56;31.85;;;19.65;;
43150;SDS011;28755;51.478;5.702;2022-11-15T04:41:22;32.67;;;19.75;;
43150;SDS011;28755;51.478;5.702;2022-11-15T04:43:47;33.58;;;20.65;;
43150;SDS011;28755;51.478;5.702;2022-11-15T04:46:13;29.52;;;21.23;;
43150;SDS011;28755;51.478;5.702;2022-11-15T04:48:38;30.83;;;19.95;;
43150;SDS011;28755;51.478;5.702;2022-11-15T04:51:04;30.00;;;20.17;;
43150;SDS011;28755;51.478;5.702;2022-11-15T04:53:29;30.20;;;20.00;;
43150;SDS011;28755;51.478;5.702;2022-11-15T04:55:55;32.95;;;21.27;;
43150;SDS011;28755;51.478;5.702;2022-11-15T04:58:20;30.95;;;21.23;;
43150;SDS011;28755;51.478;5.702;2022-11-15T05:00:46;28.63;;;20.95;;
43150;SDS011;28755;51.478;5.702;2022-11-15T05:03:12;29.85;;;19.92;;
43150;SDS011;28755;51.478;5.702;2022-11-15T05:05:56;31.05;;;19.65;;
43150;SDS011;28755;51.478;5.702;2022-11-15T05:08:22;30.08;;;20.52;;
43150;SDS011;28755;51.478;5.702;2022-11-15T05:10:48;34.67;;;20.70;;
43150;SDS011;28755;51.478;5.702;2022-11-15T05:13:14;30.65;;;20.83;;
43150;SDS011;28755;51.478;5.702;2022-11-15T05:15:39;30.45;;;20.45;;
43150;SDS011;28755;51.478;5.702;2022-11-15T05:18:05;34.70;;;22.00;;
43150;SDS011;28755;51.478;5.702;2022-11-15T05:20:30;32.80;;;22.25;;
43150;SDS011;28755;51.478;5.702;2022-11-15T05:22:56;32.08;;;22.08;;
43150;SDS011;28755;51.478;5.702;2022-11-15T05:25:22;30.30;;;21.08;;
43150;SDS011;28755;51.478;5.702;2022-11-15T05:27:47;29.80;;;21.83;;
43150;SDS011;28755;51.478;5.702;2022-11-15T05:30:14;35.78;;;22.67;;
43150;SDS011;28755;51.478;5.702;2022-11-15T05:32:40;33.10;;;21.38;;
43150;SDS011;28755;51.478;5.702;2022-11-15T05:35:06;31.42;;;21.48;;
43150;SDS011;28755;51.478;5.702;2022-11-15T05:37:35;34.50;;;21.63;;
43150;SDS011;28755;51.478;5.702;2022-11-15T05:40:00;33.13;;;22.88;;
43150;SDS011;28755;51.478;5.702;2022-11-15T05:42:26;35.40;;;21.42;;
43150;SDS011;28755;51.478;5.702;2022-11-15T05:44:52;30.23;;;21.20;;
43150;SDS011;28755;51.478;5.702;2022-11-15T05:47:23;31.48;;;20.45;;
43150;SDS011;28755;51.478;5.702;2022-11-15T05:49:51;28.35;;;20.10;;
43150;SDS011;28755;51.478;5.702;2022-11-15T05:52:19;38.80;;;21.63;;
43150;SDS011;28755;51.478;5.702;2022-11-15T05:54:47;33.92;;;21.63;;
43150;SDS011;28755;51.478;5.702;2022-11-15T05:57:14;30.83;;;20.35;;
43150;SDS011;28755;51.478;5.702;2022-11-15T05:59:40;35.83;;;21.50;;
43150;SDS011;28755;51.478;5.702;2022-11-15T06:02:08;38.03;;;21.05;;
43150;SDS011;28755;51.478;5.702;2022-11-15T06:04:34;31.10;;;20.80;;
43150;SDS011;28755;51.478;5.702;2022-11-15T06:07:00;35.10;;;22.50;;
43150;SDS011;28755;51.478;5.702;2022-11-15T06:10:17;30.75;;;20.90;;
43150;SDS011;28755;51.478;5.702;2022-11-15T06:13:07;34.95;;;21.35;;
43150;SDS011;28755;51.478;5.702;2022-11-15T06:15:32;33.13;;;22.20;;
43150;SDS011;28755;51.478;5.702;2022-11-15T06:18:01;30.38;;;21.67;;
43150;SDS011;28755;51.478;5.702;2022-11-15T06:20:27;35.35;;;22.67;;
43150;SDS011;28755;51.478;5.702;2022-11-15T06:23:00;29.60;;;19.50;;
43150;SDS011;28755;51.478;5.702;2022-11-15T06:25:28;27.00;;;18.30;;
43150;SDS011;28755;51.478;5.702;2022-11-15T06:27:55;26.02;;;18.77;;
43150;SDS011;28755;51.478;5.702;2022-11-15T06:30:22;27.33;;;18.08;;
43150;SDS011;28755;51.478;5.702;2022-11-15T06:32:49;28.40;;;18.83;;
43150;SDS011;28755;51.478;5.702;2022-11-15T06:35:14;28.98;;;18.85;;
43150;SDS011;28755;51.478;5.702;2022-11-15T06:37:41;30.50;;;20.05;;
43150;SDS011;28755;51.478;5.702;2022-11-15T06:40:07;25.58;;;18.80;;
43150;SDS011;28755;51.478;5.702;2022-11-15T06:42:34;25.23;;;18.63;;
43150;SDS011;28755;51.478;5.702;2022-11-15T06:45:00;26.25;;;18.52;;
43150;SDS011;28755;51.478;5.702;2022-11-15T06:47:25;26.33;;;17.52;;
43150;SDS011;28755;51.478;5.702;2022-11-15T06:49:51;25.15;;;17.33;;
43150;SDS011;28755;51.478;5.702;2022-11-15T06:52:16;25.92;;;17.65;;
43150;SDS011;28755;51.478;5.702;2022-11-15T06:54:46;28.58;;;17.67;;
43150;SDS011;28755;51.478;5.702;2022-11-15T06:57:12;25.55;;;16.58;;
43150;SDS011;28755;51.478;5.702;2022-11-15T06:59:37;24.45;;;16.38;;
43150;SDS011;28755;51.478;5.702;2022-11-15T07:02:03;25.05;;;15.75;;
43150;SDS011;28755;51.478;5.702;2022-11-15T07:04:29;26.00;;;16.02;;
43150;SDS011;28755;51.478;5.702;2022-11-15T07:06:54;28.77;;;15.88;;
43150;SDS011;28755;51.478;5.702;2022-11-15T07:09:20;25.95;;;15.55;;
43150;SDS011;28755;51.478;5.702;2022-11-15T07:11:45;22.20;;;14.88;;
43150;SDS011;28755;51.478;5.702;2022-11-15T07:14:11;27.83;;;14.77;;
43150;SDS011;28755;51.478;5.702;2022-11-15T07:16:37;22.98;;;14.15;;
43150;SDS011;28755;51.478;5.702;2022-11-15T07:19:02;23.80;;;14.75;;
43150;SDS011;28755;51.478;5.702;2022-11-15T07:21:28;26.13;;;14.77;;
43150;SDS011;28755;51.478;5.702;2022-11-15T07:23:54;19.65;;;13.30;;
43150;SDS011;28755;51.478;5.702;2022-11-15T07:26:20;19.52;;;13.30;;
43150;SDS011;28755;51.478;5.702;2022-11-15T07:28:45;25.33;;;13.35;;
43150;SDS011;28755;51.478;5.702;2022-11-15T07:31:11;21.60;;;13.32;;
43150;SDS011;28755;51.478;5.702;2022-11-15T07:33:37;18.85;;;12.98;;
43150;SDS011;28755;51.478;5.702;2022-11-15T07:36:03;19.02;;;12.70;;
43150;SDS011;28755;51.478;5.702;2022-11-15T07:38:30;21.15;;;12.57;;
43150;SDS011;28755;51.478;5.702;2022-11-15T07:40:57;26.42;;;13.32;;
43150;SDS011;28755;51.478;5.702;2022-11-15T07:43:25;21.42;;;12.82;;
43150;SDS011;28755;51.478;5.702;2022-11-15T07:45:52;22.40;;;13.10;;
43150;SDS011;28755;51.478;5.702;2022-11-15T07:48:18;19.88;;;12.95;;
43150;SDS011;28755;51.478;5.702;2022-11-15T07:50:44;22.95;;;12.90;;
43150;SDS011;28755;51.478;5.702;2022-11-15T07:53:10;16.83;;;11.63;;
43150;SDS011;28755;51.478;5.702;2022-11-15T07:55:36;19.40;;;12.25;;
43150;SDS011;28755;51.478;5.702;2022-11-15T08:00:28;21.30;;;12.27;;
43150;SDS011;28755;51.478;5.702;2022-11-15T08:03:04;17.20;;;11.73;;
43150;SDS011;28755;51.478;5.702;2022-11-15T08:05:38;19.50;;;11.77;;
43150;SDS011;28755;51.478;5.702;2022-11-15T08:08:05;19.50;;;11.32;;
43150;SDS011;28755;51.478;5.702;2022-11-15T08:10:31;17.88;;;11.13;;
43150;SDS011;28755;51.478;5.702;2022-11-15T08:12:57;20.10;;;11.68;;
43150;SDS011;28755;51.478;5.702;2022-11-15T08:15:24;15.88;;;10.93;;
43150;SDS011;28755;51.478;5.702;2022-11-15T08:17:53;17.67;;;9.95;;
43150;SDS011;28755;51.478;5.702;2022-11-15T08:20:23;12.90;;;9.27;;
43150;SDS011;28755;51.478;5.702;2022-11-15T08:22:50;12.90;;;9.18;;
43150;SDS011;28755;51.478;5.702;2022-11-15T08:25:15;15.95;;;10.05;;
43150;SDS011;28755;51.478;5.702;2022-11-15T08:27:41;15.05;;;9.68;;
43150;SDS011;28755;51.478;5.702;2022-11-15T08:30:07;15.95;;;9.88;;
43150;SDS011;28755;51.478;5.702;2022-11-15T08:32:33;14.95;;;9.88;;
43150;SDS011;28755;51.478;5.702;2022-11-15T08:34:58;13.30;;;8.75;;
43150;SDS011;28755;51.478;5.702;2022-11-15T08:37:24;19.02;;;9.55;;
43150;SDS011;28755;51.478;5.702;2022-11-15T08:39:50;11.25;;;8.32;;
43150;SDS011;28755;51.478;5.702;2022-11-15T08:42:15;12.90;;;8.32;;
43150;SDS011;28755;51.478;5.702;2022-11-15T08:44:41;15.25;;;8.57;;
43150;SDS011;28755;51.478;5.702;2022-11-15T08:47:07;12.98;;;8.10;;
43150;SDS011;28755;51.478;5.702;2022-11-15T08:49:35;13.32;;;8.15;;
43150;SDS011;28755;51.478;5.702;2022-11-15T08:52:01;15.00;;;7.43;;
43150;SDS011;28755;51.478;5.702;2022-11-15T08:54:29;15.77;;;8.00;;
43150;SDS011;28755;51.478;5.702;2022-11-15T08:56:55;8.93;;;6.43;;
43150;SDS011;28755;51.478;5.702;2022-11-15T08:59:20;9.90;;;5.68;;
43150;SDS011;28755;51.478;5.702;2022-11-15T09:01:47;12.23;;;5.30;;
43150;SDS011;28755;51.478;5.702;2022-11-15T09:04:12;6.53;;;4.18;;
43150;SDS011;28755;51.478;5.702;2022-11-15T09:06:38;13.00;;;4.63;;
43150;SDS011;28755;51.478;5.702;2022-11-15T09:09:04;7.88;;;4.10;;
43150;SDS011;28755;51.478;5.702;2022-11-15T09:11:29;10.38;;;4.07;;
43150;SDS011;28755;51.478;5.702;2022-11-15T09:13:55;8.52;;;3.90;;
43150;SDS011;28755;51.478;5.702;2022-11-15T09:16:20;9.05;;;3.92;;
43150;SDS011;28755;51.478;5.702;2022-11-15T09:18:46;7.47;;;3.50;;
43150;SDS011;28755;51.478;5.702;2022-11-15T09:21:12;6.80;;;3.50;;
43150;SDS011;28755;51.478;5.702;2022-11-15T09:23:37;9.40;;;3.70;;
43150;SDS011;28755;51.478;5.702;2022-11-15T09:26:03;5.63;;;3.45;;
43150;SDS011;28755;51.478;5.702;2022-11-15T09:28:30;6.95;;;3.53;;
43150;SDS011;28755;51.478;5.702;2022-11-15T09:30:57;9.98;;;2.80;;
43150;SDS011;28755;51.478;5.702;2022-11-15T09:33:23;6.88;;;2.72;;
43150;SDS011;28755;51.478;5.702;2022-11-15T09:35:49;6.35;;;2.50;;
43150;SDS011;28755;51.478;5.702;2022-11-15T09:38:14;5.78;;;2.17;;
43150;SDS011;28755;51.478;5.702;2022-11-15T09:40:40;7.28;;;2.30;;
43150;SDS011;28755;51.478;5.702;2022-11-15T09:43:09;5.03;;;2.22;;
43150;SDS011;28755;51.478;5.702;2022-11-15T09:46:29;4.20;;;2.08;;
43150;SDS011;28755;51.478;5.702;2022-11-15T09:48:59;8.52;;;2.00;;
43150;SDS011;28755;51.478;5.702;2022-11-15T09:54:13;4.55;;;1.60;;
43150;SDS011;28755;51.478;5.702;2022-11-15T09:56:54;3.28;;;1.73;;
43150;SDS011;28755;51.478;5.702;2022-11-15T09:59:36;3.05;;;1.40;;
43150;SDS011;28755;51.478;5.702;2022-11-15T10:05:01;9.73;;;2.05;;
43150;SDS011;28755;51.478;5.702;2022-11-15T10:07:48;5.13;;;1.30;;
43150;SDS011;28755;51.478;5.702;2022-11-15T10:10:29;7.05;;;1.38;;
43150;SDS011;28755;51.478;5.702;2022-11-15T10:13:02;6.43;;;1.88;;
43150;SDS011;28755;51.478;5.702;2022-11-15T10:15:29;11.15;;;1.58;;
43150;SDS011;28755;51.478;5.702;2022-11-15T10:18:30;6.25;;;1.40;;
43150;SDS011;28755;51.478;5.702;2022-11-15T10:20:59;6.15;;;1.40;;
43150;SDS011;28755;51.478;5.702;2022-11-15T10:23:38;3.08;;;1.15;;
43150;SDS011;28755;51.478;5.702;2022-11-15T10:26:04;5.05;;;1.10;;
43150;SDS011;28755;51.478;5.702;2022-11-15T10:28:32;6.72;;;1.25;;
43150;SDS011;28755;51.478;5.702;2022-11-15T10:30:59;5.65;;;1.52;;
43150;SDS011;28755;51.478;5.702;2022-11-15T10:36:13;3.80;;;1.23;;
43150;SDS011;28755;51.478;5.702;2022-11-15T10:41:13;5.00;;;1.30;;
43150;SDS011;28755;51.478;5.702;2022-11-15T10:43:41;5.07;;;1.50;;
43150;SDS011;28755;51.478;5.702;2022-11-15T10:54:21;5.93;;;1.50;;
43150;SDS011;28755;51.478;5.702;2022-11-15T10:56:58;10.07;;;1.70;;
43150;SDS011;28755;51.478;5.702;2022-11-15T10:59:29;6.60;;;1.38;;
43150;SDS011;28755;51.478;5.702;2022-11-15T11:01:58;4.55;;;1.48;;
43150;SDS011;28755;51.478;5.702;2022-11-15T11:04:27;5.82;;;1.45;;
43150;SDS011;28755;51.478;5.702;2022-11-15T11:09:33;5.28;;;1.38;;
43150;SDS011;28755;51.478;5.702;2022-11-15T11:12:04;8.38;;;1.63;;
43150;SDS011;28755;51.478;5.702;2022-11-15T11:14:35;5.00;;;1.60;;
43150;SDS011;28755;51.478;5.702;2022-11-15T11:19:56;3.72;;;1.30;;
43150;SDS011;28755;51.478;5.702;2022-11-15T11:22:39;3.30;;;1.10;;
43150;SDS011;28755;51.478;5.702;2022-11-15T11:25:27;4.22;;;1.17;;
43150;SDS011;28755;51.478;5.702;2022-11-15T11:28:09;4.32;;;1.10;;
43150;SDS011;28755;51.478;5.702;2022-11-15T11:31:00;4.55;;;1.30;;
43150;SDS011;28755;51.478;5.702;2022-11-15T11:34:12;2.08;;;0.90;;
43150;SDS011;28755;51.478;5.702;2022-11-15T11:40:11;3.22;;;1.33;;
43150;SDS011;28755;51.478;5.702;2022-11-15T11:42:58;2.83;;;1.10;;
43150;SDS011;28755;51.478;5.702;2022-11-15T11:50:45;5.38;;;1.20;;
43150;SDS011;28755;51.478;5.702;2022-11-15T11:53:13;6.88;;;1.35;;
43150;SDS011;28755;51.478;5.702;2022-11-15T11:55:49;5.63;;;1.10;;
43150;SDS011;28755;51.478;5.702;2022-11-15T11:58:24;5.20;;;1.10;;
43150;SDS011;28755;51.478;5.702;2022-11-15T12:01:11;8.15;;;1.30;;
43150;SDS011;28755;51.478;5.702;2022-11-15T12:04:05;6.07;;;1.30;;
43150;SDS011;28755;51.478;5.702;2022-11-15T12:06:41;5.53;;;1.60;;
43150;SDS011;28755;51.478;5.702;2022-11-15T12:17:16;6.90;;;1.27;;
43150;SDS011;28755;51.478;5.702;2022-11-15T12:19:46;7.72;;;1.85;;
43150;SDS011;28755;51.478;5.702;2022-11-15T12:22:13;5.40;;;1.05;;
43150;SDS011;28755;51.478;5.702;2022-11-15T12:27:16;9.95;;;1.73;;
43150;SDS011;28755;51.478;5.702;2022-11-15T12:30:02;4.55;;;1.08;;
43150;SDS011;28755;51.478;5.702;2022-11-15T12:32:34;6.65;;;1.35;;
43150;SDS011;28755;51.478;5.702;2022-11-15T12:35:06;5.20;;;1.13;;
43150;SDS011;28755;51.478;5.702;2022-11-15T12:37:48;5.65;;;1.17;;
43150;SDS011;28755;51.478;5.702;2022-11-15T12:40:25;8.25;;;1.40;;
43150;SDS011;28755;51.478;5.702;2022-11-15T12:45:39;7.05;;;0.88;;
43150;SDS011;28755;51.478;5.702;2022-11-15T12:56:08;3.58;;;0.90;;
43150;SDS011;28755;51.478;5.702;2022-11-15T12:58:41;3.50;;;0.93;;
43150;SDS011;28755;51.478;5.702;2022-11-15T13:06:48;4.90;;;0.90;;
43150;SDS011;28755;51.478;5.702;2022-11-15T13:11:54;4.47;;;1.00;;
43150;SDS011;28755;51.478;5.702;2022-11-15T13:17:02;4.57;;;1.05;;
43150;SDS011;28755;51.478;5.702;2022-11-15T13:19:37;6.53;;;1.38;;
43150;SDS011;28755;51.478;5.702;2022-11-15T13:22:04;5.18;;;1.10;;
43150;SDS011;28755;51.478;5.702;2022-11-15T13:24:52;5.97;;;1.38;;
43150;SDS011;28755;51.478;5.702;2022-11-15T13:27:18;8.40;;;1.58;;
43150;SDS011;28755;51.478;5.702;2022-11-15T13:29:45;5.90;;;1.48;;
43150;SDS011;28755;51.478;5.702;2022-11-15T13:32:11;4.75;;;1.10;;
43150;SDS011;28755;51.478;5.702;2022-11-15T13:34:38;5.32;;;1.00;;
43150;SDS011;28755;51.478;5.702;2022-11-15T13:37:32;6.32;;;1.15;;
43150;SDS011;28755;51.478;5.702;2022-11-15T13:40:20;2.97;;;0.82;;
43150;SDS011;28755;51.478;5.702;2022-11-15T13:42:49;4.15;;;0.90;;
43150;SDS011;28755;51.478;5.702;2022-11-15T13:45:16;5.43;;;1.00;;
43150;SDS011;28755;51.478;5.702;2022-11-15T13:47:43;4.13;;;0.90;;
43150;SDS011;28755;51.478;5.702;2022-11-15T13:50:12;5.95;;;1.35;;
43150;SDS011;28755;51.478;5.702;2022-11-15T13:52:39;4.35;;;0.88;;
43150;SDS011;28755;51.478;5.702;2022-11-15T13:57:50;7.53;;;1.10;;
43150;SDS011;28755;51.478;5.702;2022-11-15T14:00:38;6.18;;;0.98;;
43150;SDS011;28755;51.478;5.702;2022-11-15T14:03:21;6.03;;;1.48;;
43150;SDS011;28755;51.478;5.702;2022-11-15T14:06:03;5.20;;;1.05;;
43150;SDS011;28755;51.478;5.702;2022-11-15T14:08:36;7.00;;;1.40;;
43150;SDS011;28755;51.478;5.702;2022-11-15T14:11:08;3.78;;;1.20;;
43150;SDS011;28755;51.478;5.702;2022-11-15T14:13:42;8.65;;;1.02;;
43150;SDS011;28755;51.478;5.702;2022-11-15T14:16:31;3.90;;;0.90;;
43150;SDS011;28755;51.478;5.702;2022-11-15T14:19:03;7.22;;;1.10;;
43150;SDS011;28755;51.478;5.702;2022-11-15T14:21:30;4.43;;;1.15;;
43150;SDS011;28755;51.478;5.702;2022-11-15T14:24:15;9.48;;;1.55;;
43150;SDS011;28755;51.478;5.702;2022-11-15T14:26:45;6.03;;;1.80;;
43150;SDS011;28755;51.478;5.702;2022-11-15T14:29:21;7.18;;;1.23;;
43150;SDS011;28755;51.478;5.702;2022-11-15T14:31:55;5.72;;;1.52;;
43150;SDS011;28755;51.478;5.702;2022-11-15T14:34:37;11.85;;;1.60;;
43150;SDS011;28755;51.478;5.702;2022-11-15T14:37:03;12.27;;;1.60;;
43150;SDS011;28755;51.478;5.702;2022-11-15T14:39:28;7.47;;;1.83;;
43150;SDS011;28755;51.478;5.702;2022-11-15T14:41:54;6.18;;;1.40;;
43150;SDS011;28755;51.478;5.702;2022-11-15T14:44:27;9.48;;;1.60;;
43150;SDS011;28755;51.478;5.702;2022-11-15T14:46:52;11.07;;;2.40;;
43150;SDS011;28755;51.478;5.702;2022-11-15T14:49:18;8.02;;;1.70;;
43150;SDS011;28755;51.478;5.702;2022-11-15T14:51:44;10.27;;;2.05;;
43150;SDS011;28755;51.478;5.702;2022-11-15T14:54:10;7.22;;;2.22;;
43150;SDS011;28755;51.478;5.702;2022-11-15T14:56:36;11.10;;;2.17;;
43150;SDS011;28755;51.478;5.702;2022-11-15T14:59:01;10.20;;;2.72;;
43150;SDS011;28755;51.478;5.702;2022-11-15T15:01:27;9.13;;;2.03;;
43150;SDS011;28755;51.478;5.702;2022-11-15T15:03:53;11.80;;;2.15;;
43150;SDS011;28755;51.478;5.702;2022-11-15T15:06:22;13.07;;;2.08;;
43150;SDS011;28755;51.478;5.702;2022-11-15T15:08:47;12.27;;;1.92;;
43150;SDS011;28755;51.478;5.702;2022-11-15T15:11:25;9.52;;;1.80;;
43150;SDS011;28755;51.478;5.702;2022-11-15T15:13:53;9.27;;;3.05;;
43150;SDS011;28755;51.478;5.702;2022-11-15T15:16:21;19.40;;;2.30;;
43150;SDS011;28755;51.478;5.702;2022-11-15T15:18:47;10.45;;;1.90;;
43150;SDS011;28755;51.478;5.702;2022-11-15T15:21:34;9.25;;;1.80;;
43150;SDS011;28755;51.478;5.702;2022-11-15T15:23:59;4.55;;;1.20;;
43150;SDS011;28755;51.478;5.702;2022-11-15T15:26:25;5.70;;;1.30;;
43150;SDS011;28755;51.478;5.702;2022-11-15T15:28:51;8.25;;;1.23;;
43150;SDS011;28755;51.478;5.702;2022-11-15T15:31:16;5.25;;;1.70;;
43150;SDS011;28755;51.478;5.702;2022-11-15T15:33:42;4.97;;;1.60;;
43150;SDS011;28755;51.478;5.702;2022-11-15T15:36:12;5.15;;;1.60;;
43150;SDS011;28755;51.478;5.702;2022-11-15T15:38:38;5.45;;;1.80;;
43150;SDS011;28755;51.478;5.702;2022-11-15T15:41:11;7.70;;;1.98;;
43150;SDS011;28755;51.478;5.702;2022-11-15T15:43:38;5.43;;;1.70;;
43150;SDS011;28755;51.478;5.702;2022-11-15T15:46:07;6.15;;;2.40;;
43150;SDS011;28755;51.478;5.702;2022-11-15T15:48:35;7.05;;;2.60;;
43150;SDS011;28755;51.478;5.702;2022-11-15T15:51:02;8.55;;;2.67;;
43150;SDS011;28755;51.478;5.702;2022-11-15T15:53:27;10.07;;;3.20;;
43150;SDS011;28755;51.478;5.702;2022-11-15T15:55:53;11.88;;;3.22;;
43150;SDS011;28755;51.478;5.702;2022-11-15T15:58:19;11.30;;;3.28;;
43150;SDS011;28755;51.478;5.702;2022-11-15T16:00:45;10.57;;;3.08;;
43150;SDS011;28755;51.478;5.702;2022-11-15T16:03:10;8.25;;;2.67;;
43150;SDS011;28755;51.478;5.702;2022-11-15T16:05:36;10.25;;;2.75;;
43150;SDS011;28755;51.478;5.702;2022-11-15T16:08:01;7.63;;;2.38;;
43150;SDS011;28755;51.478;5.702;2022-11-15T16:10:29;10.15;;;2.22;;
43150;SDS011;28755;51.478;5.702;2022-11-15T16:12:59;5.03;;;2.20;;
43150;SDS011;28755;51.478;5.702;2022-11-15T16:15:26;6.22;;;2.17;;
43150;SDS011;28755;51.478;5.702;2022-11-15T16:17:58;7.53;;;2.53;;
43150;SDS011;28755;51.478;5.702;2022-11-15T16:20:39;8.55;;;2.33;;
43150;SDS011;28755;51.478;5.702;2022-11-15T16:23:08;6.07;;;1.67;;